createdAt,value
2023-01-13T00:00:05.555Z,13.49
2023-01-13T00:01:05.405Z,13.50
2023-01-13T00:02:05.486Z,13.54
2023-01-13T00:03:05.396Z,13.60
2023-01-13T00:04:05.377Z,13.54
2023-01-13T00:05:05.454Z,13.60
2023-01-13T00:06:05.359Z,13.47
2023-01-13T00:07:05.354Z,13.50
2023-01-13T00:08:06.338Z,13.49
2023-01-13T00:09:05.335Z,13.62
2023-01-13T00:10:06.293Z,13.60
2023-01-13T00:11:05.292Z,13.67
2023-01-13T00:12:05.302Z,13.59
2023-01-13T00:13:05.255Z,13.65
2023-01-13T00:14:05.256Z,13.54
2023-01-13T00:15:05.254Z,13.44
2023-01-13T00:16:05.319Z,13.42
2023-01-13T00:17:05.271Z,13.46
2023-01-13T00:18:06.210Z,13.42
2023-01-13T00:19:06.179Z,13.39
2023-01-13T00:20:05.193Z,13.46
2023-01-13T00:21:05.199Z,13.42
2023-01-13T00:22:05.150Z,13.31
2023-01-13T00:23:06.207Z,13.23
2023-01-13T00:24:05.144Z,13.25
2023-01-13T00:25:05.136Z,13.28
2023-01-13T00:26:06.138Z,13.30
2023-01-13T00:27:05.107Z,13.22
2023-01-13T00:28:06.110Z,13.35
2023-01-13T00:29:05.467Z,13.39
2023-01-13T00:30:05.065Z,13.44
2023-01-13T00:31:05.162Z,13.50
2023-01-13T00:32:05.094Z,13.41
2023-01-13T00:33:05.043Z,13.38
2023-01-13T00:34:05.037Z,13.46
2023-01-13T00:35:05.035Z,13.49
2023-01-13T00:36:04.999Z,13.50
2023-01-13T00:37:05.011Z,13.44
2023-01-13T00:38:05.024Z,13.42
2023-01-13T00:39:04.971Z,13.44
2023-01-13T00:40:05.980Z,13.49
2023-01-13T00:41:05.961Z,13.47
2023-01-13T00:42:04.942Z,13.47
2023-01-13T00:43:04.942Z,13.54
2023-01-13T00:44:04.976Z,13.53
2023-01-13T00:45:04.901Z,13.52
2023-01-13T00:46:05.004Z,13.52
2023-01-13T00:47:04.892Z,13.50
2023-01-13T00:48:05.909Z,13.57
2023-01-13T00:49:04.880Z,13.53
2023-01-13T00:50:05.897Z,13.53
2023-01-13T00:51:05.903Z,13.53
2023-01-13T00:52:04.829Z,13.44
2023-01-13T00:53:04.811Z,13.47
2023-01-13T00:54:05.820Z,13.59
2023-01-13T00:55:04.813Z,13.65
2023-01-13T00:56:04.821Z,13.60
2023-01-13T00:57:04.791Z,13.59
2023-01-13T00:58:04.757Z,13.63
2023-01-13T00:59:05.797Z,13.60
2023-01-13T01:00:04.770Z,13.59
2023-01-13T01:01:04.921Z,13.54
2023-01-13T01:02:04.891Z,13.62
2023-01-13T01:03:05.740Z,13.62
2023-01-13T01:04:05.698Z,13.60
2023-01-13T01:05:04.683Z,13.56
2023-01-13T01:06:04.712Z,13.56
2023-01-13T01:07:04.680Z,13.59
2023-01-13T01:08:04.702Z,13.47
2023-01-13T01:09:04.641Z,13.59
2023-01-13T01:10:04.642Z,13.59
2023-01-13T01:11:04.660Z,13.57
2023-01-13T01:12:04.638Z,13.56
2023-01-13T01:13:04.592Z,13.52
2023-01-13T01:14:04.628Z,13.57
2023-01-13T01:15:04.595Z,13.50
2023-01-13T01:16:04.682Z,13.59
2023-01-13T01:17:04.559Z,13.49
2023-01-13T01:18:04.541Z,13.38
2023-01-13T01:19:04.558Z,13.49
2023-01-13T01:20:04.527Z,13.39
2023-01-13T01:21:05.509Z,13.44
2023-01-13T01:22:05.507Z,13.47
2023-01-13T01:23:04.500Z,13.52
2023-01-13T01:24:04.496Z,13.60
2023-01-13T01:25:04.504Z,13.54
2023-01-13T01:26:05.472Z,13.53
2023-01-13T01:27:04.435Z,13.53
2023-01-13T01:28:04.475Z,13.59
2023-01-13T01:29:04.442Z,13.65
2023-01-13T01:30:04.424Z,13.59
2023-01-13T01:31:04.419Z,13.56
2023-01-13T01:32:04.397Z,13.57
2023-01-13T01:33:04.388Z,13.65
2023-01-13T01:34:04.419Z,13.59
2023-01-13T01:35:04.361Z,13.68
2023-01-13T01:36:04.368Z,13.62
2023-01-13T01:37:04.330Z,13.75
2023-01-13T01:38:04.333Z,13.70
2023-01-13T01:39:04.326Z,13.62
2023-01-13T01:40:04.324Z,13.41
2023-01-13T01:41:04.297Z,13.52
2023-01-13T01:42:04.303Z,13.62
2023-01-13T01:43:04.324Z,13.59
2023-01-13T01:44:04.306Z,13.62
2023-01-13T01:45:05.260Z,13.46
2023-01-13T01:46:04.231Z,13.42
2023-01-13T01:47:04.309Z,13.47
2023-01-13T01:48:04.219Z,13.59
2023-01-13T01:49:04.199Z,13.57
2023-01-13T01:50:04.213Z,13.67
2023-01-13T01:51:04.202Z,13.59
2023-01-13T01:52:04.214Z,13.68
2023-01-13T01:53:04.185Z,13.72
2023-01-13T01:54:04.141Z,13.62
2023-01-13T01:55:04.132Z,13.70
2023-01-13T01:56:04.133Z,13.70
2023-01-13T01:57:05.150Z,13.62
2023-01-13T01:58:05.098Z,13.72
2023-01-13T01:59:04.080Z,13.62
2023-01-13T02:00:04.081Z,13.57
2023-01-13T02:01:04.293Z,13.59
2023-01-13T02:02:04.151Z,13.59
2023-01-13T02:03:04.074Z,13.62
2023-01-13T02:04:04.056Z,13.59
2023-01-13T02:05:04.019Z,13.65
2023-01-13T02:06:04.026Z,13.75
2023-01-13T02:07:03.996Z,13.65
2023-01-13T02:08:04.033Z,13.67
2023-01-13T02:09:03.975Z,13.59
2023-01-13T02:10:04.964Z,13.60
2023-01-13T02:11:03.952Z,13.50
2023-01-13T02:12:03.948Z,13.52
2023-01-13T02:13:03.928Z,13.60
2023-01-13T02:14:03.934Z,13.59
2023-01-13T02:15:03.908Z,13.65
2023-01-13T02:16:03.951Z,13.67
2023-01-13T02:17:03.884Z,13.68
2023-01-13T02:18:03.878Z,13.63
2023-01-13T02:19:03.901Z,13.50
2023-01-13T02:20:03.878Z,13.52
2023-01-13T02:21:03.847Z,13.59
2023-01-13T02:22:03.843Z,13.57
2023-01-13T02:23:04.849Z,13.62
2023-01-13T02:24:03.832Z,13.57
2023-01-13T02:25:03.806Z,13.68
2023-01-13T02:26:03.802Z,13.70
2023-01-13T02:27:04.767Z,13.60
2023-01-13T02:28:04.806Z,13.63
2023-01-13T02:29:03.787Z,13.52
2023-01-13T02:30:03.766Z,13.52
2023-01-13T02:31:03.729Z,13.44
2023-01-13T02:32:03.724Z,13.52
2023-01-13T02:33:03.717Z,13.38
2023-01-13T02:34:03.700Z,13.54
2023-01-13T02:35:03.745Z,13.54
2023-01-13T02:36:03.684Z,13.57
2023-01-13T02:37:03.669Z,13.50
2023-01-13T02:38:03.655Z,13.62
2023-01-13T02:39:03.659Z,13.67
2023-01-13T02:40:03.631Z,13.53
2023-01-13T02:41:03.636Z,13.59
2023-01-13T02:42:04.606Z,13.50
2023-01-13T02:43:03.599Z,13.54
2023-01-13T02:44:03.591Z,13.47
2023-01-13T02:45:03.615Z,13.62
2023-01-13T02:46:03.644Z,13.42
2023-01-13T02:47:03.568Z,13.50
2023-01-13T02:48:03.555Z,13.62
2023-01-13T02:49:03.518Z,13.57
2023-01-13T02:50:03.534Z,13.62
2023-01-13T02:51:04.514Z,13.52
2023-01-13T02:52:03.524Z,13.50
2023-01-13T02:53:03.490Z,13.62
2023-01-13T02:54:03.492Z,13.60
2023-01-13T02:55:03.494Z,13.63
2023-01-13T02:56:03.486Z,13.72
2023-01-13T02:57:03.458Z,13.74
2023-01-13T02:58:03.447Z,13.75
2023-01-13T02:59:03.438Z,13.74
2023-01-13T03:00:03.412Z,13.72
2023-01-13T03:01:03.574Z,13.70
2023-01-13T03:02:04.620Z,13.72
2023-01-13T03:03:04.371Z,13.74
2023-01-13T03:04:03.371Z,13.72
2023-01-13T03:05:03.377Z,13.72
2023-01-13T03:06:03.362Z,13.60
2023-01-13T03:07:03.332Z,13.63
2023-01-13T03:08:03.354Z,13.74
2023-01-13T03:09:03.343Z,13.72
2023-01-13T03:10:03.296Z,13.59
2023-01-13T03:11:03.320Z,13.67
2023-01-13T03:12:03.280Z,13.74
2023-01-13T03:13:03.272Z,13.60
2023-01-13T03:14:04.294Z,13.62
2023-01-13T03:15:03.294Z,13.60
2023-01-13T03:16:03.260Z,13.70
2023-01-13T03:17:03.229Z,13.60
2023-01-13T03:18:04.238Z,13.50
2023-01-13T03:19:03.216Z,13.42
2023-01-13T03:20:03.205Z,13.53
2023-01-13T03:21:03.227Z,13.50
2023-01-13T03:22:03.169Z,13.50
2023-01-13T03:23:03.185Z,13.49
2023-01-13T03:24:03.164Z,13.47
2023-01-13T03:25:03.141Z,13.31
2023-01-13T03:26:03.149Z,13.44
2023-01-13T03:27:03.111Z,13.50
2023-01-13T03:28:03.134Z,13.57
2023-01-13T03:29:04.094Z,13.53
2023-01-13T03:30:03.092Z,13.54
2023-01-13T03:31:03.160Z,13.52
2023-01-13T03:32:03.080Z,13.47
2023-01-13T03:33:03.045Z,13.56
2023-01-13T03:34:04.077Z,13.59
2023-01-13T03:35:03.024Z,13.59
2023-01-13T03:36:03.031Z,13.60
2023-01-13T03:37:03.987Z,13.41
2023-01-13T03:38:03.029Z,13.56
2023-01-13T03:39:04.002Z,13.56
2023-01-13T03:40:03.021Z,13.56
2023-01-13T03:41:02.998Z,13.62
2023-01-13T03:42:02.945Z,13.49
2023-01-13T03:43:02.997Z,13.60
2023-01-13T03:44:03.935Z,13.57
2023-01-13T03:45:03.922Z,13.57
2023-01-13T03:46:02.975Z,13.57
2023-01-13T03:47:02.895Z,13.60
2023-01-13T03:48:02.923Z,13.62
2023-01-13T03:49:03.876Z,13.62
2023-01-13T03:50:02.870Z,13.57
2023-01-13T03:51:02.849Z,13.62
2023-01-13T03:52:02.847Z,13.54
2023-01-13T03:53:02.823Z,13.53
2023-01-13T03:54:02.887Z,13.59
2023-01-13T03:55:02.796Z,13.59
2023-01-13T03:56:03.811Z,13.56
2023-01-13T03:57:02.810Z,13.71
2023-01-13T03:58:02.799Z,13.67
2023-01-13T03:59:02.762Z,13.72
2023-01-13T04:00:02.761Z,13.65
2023-01-13T04:01:02.869Z,13.70
2023-01-13T04:02:04.003Z,13.74
2023-01-13T04:03:03.722Z,13.78
2023-01-13T04:04:02.741Z,13.75
2023-01-13T04:05:02.692Z,13.71
2023-01-13T04:06:02.707Z,13.72
2023-01-13T04:07:02.708Z,13.68
2023-01-13T04:08:02.672Z,13.83
2023-01-13T04:09:02.641Z,13.81
2023-01-13T04:10:02.658Z,13.79
2023-01-13T04:11:02.654Z,13.71
2023-01-13T04:12:02.620Z,13.71
2023-01-13T04:13:02.794Z,13.74
2023-01-13T04:14:02.629Z,13.65
2023-01-13T04:15:02.678Z,13.68
2023-01-13T04:16:02.595Z,13.72
2023-01-13T04:17:02.576Z,13.77
2023-01-13T04:18:03.532Z,13.75
2023-01-13T04:19:02.523Z,13.79
2023-01-13T04:20:02.555Z,13.81
2023-01-13T04:21:03.525Z,13.89
2023-01-13T04:22:02.492Z,13.92
2023-01-13T04:23:02.494Z,13.79
2023-01-13T04:24:02.484Z,13.78
2023-01-13T04:25:02.511Z,13.83
2023-01-13T04:26:02.467Z,13.86
2023-01-13T04:27:02.444Z,13.87
2023-01-13T04:28:03.439Z,13.86
2023-01-13T04:29:02.444Z,13.86
2023-01-13T04:30:02.405Z,13.79
2023-01-13T04:31:02.511Z,13.78
2023-01-13T04:32:02.418Z,13.83
2023-01-13T04:33:02.399Z,13.77
2023-01-13T04:34:02.395Z,13.81
2023-01-13T04:35:03.343Z,13.85
2023-01-13T04:36:02.342Z,13.78
2023-01-13T04:37:03.361Z,13.79
2023-01-13T04:38:02.339Z,13.86
2023-01-13T04:39:02.319Z,13.86
2023-01-13T04:40:02.315Z,13.87
2023-01-13T04:41:02.312Z,13.92
2023-01-13T04:42:02.291Z,13.90
2023-01-13T04:43:02.284Z,13.87
2023-01-13T04:44:02.265Z,13.85
2023-01-13T04:45:02.259Z,13.93
2023-01-13T04:46:02.286Z,13.89
2023-01-13T04:47:02.226Z,13.87
2023-01-13T04:48:03.298Z,13.78
2023-01-13T04:49:02.224Z,13.79
2023-01-13T04:50:03.225Z,13.79
2023-01-13T04:51:03.168Z,13.78
2023-01-13T04:52:02.181Z,13.81
2023-01-13T04:53:02.152Z,13.86
2023-01-13T04:54:02.153Z,13.75
2023-01-13T04:55:02.225Z,13.72
2023-01-13T04:56:02.147Z,13.70
2023-01-13T04:57:02.132Z,13.71
2023-01-13T04:58:02.110Z,13.71
2023-01-13T04:59:02.090Z,13.70
2023-01-13T05:00:03.128Z,13.72
2023-01-13T05:01:02.140Z,13.72
2023-01-13T05:02:02.124Z,13.75
2023-01-13T05:03:02.049Z,13.83
2023-01-13T05:04:02.020Z,13.87
2023-01-13T05:05:09.908Z,14.00
2023-01-13T05:06:02.047Z,13.93
2023-01-13T05:07:03.007Z,13.75
2023-01-13T05:08:01.996Z,13.71
2023-01-13T05:09:01.977Z,13.81
2023-01-13T05:10:01.969Z,13.79
2023-01-13T05:11:01.974Z,13.72
2023-01-13T05:12:02.943Z,13.77
2023-01-13T05:13:01.935Z,13.68
2023-01-13T05:14:01.938Z,13.68
2023-01-13T05:15:01.909Z,13.75
2023-01-13T05:16:02.074Z,13.79
2023-01-13T05:17:01.912Z,13.81
2023-01-13T05:18:01.887Z,13.79
2023-01-13T05:19:02.921Z,13.75
2023-01-13T05:20:02.875Z,13.68
2023-01-13T05:21:01.883Z,13.71
2023-01-13T05:22:01.839Z,13.74
2023-01-13T05:23:02.832Z,13.72
2023-01-13T05:24:02.804Z,13.70
2023-01-13T05:25:01.809Z,13.63
2023-01-13T05:26:02.804Z,13.68
2023-01-13T05:27:01.797Z,13.74
2023-01-13T05:28:01.780Z,13.74
2023-01-13T05:29:02.743Z,13.74
2023-01-13T05:30:01.776Z,13.70
2023-01-13T05:31:01.855Z,13.67
2023-01-13T05:32:01.757Z,13.72
2023-01-13T05:33:01.735Z,13.71
2023-01-13T05:34:01.699Z,13.62
2023-01-13T05:35:01.683Z,13.74
2023-01-13T05:36:02.686Z,13.70
2023-01-13T05:37:01.668Z,13.71
2023-01-13T05:38:01.665Z,13.72
2023-01-13T05:39:02.637Z,13.68
2023-01-13T05:40:01.703Z,13.65
2023-01-13T05:41:01.634Z,13.71
2023-01-13T05:42:01.643Z,13.72
2023-01-13T05:43:02.590Z,13.81
2023-01-13T05:44:01.626Z,13.81
2023-01-13T05:45:01.577Z,13.81
2023-01-13T05:46:01.785Z,13.71
2023-01-13T05:47:01.562Z,13.77
2023-01-13T05:48:01.595Z,13.72
2023-01-13T05:49:01.567Z,13.72
2023-01-13T05:50:01.550Z,13.71
2023-01-13T05:51:01.561Z,13.81
2023-01-13T05:52:01.531Z,13.72
2023-01-13T05:53:01.491Z,13.81
2023-01-13T05:54:01.497Z,13.63
2023-01-13T05:55:01.499Z,13.60
2023-01-13T05:56:01.463Z,13.78
2023-01-13T05:57:01.453Z,13.72
2023-01-13T05:58:02.436Z,13.74
2023-01-13T05:59:01.431Z,13.74
2023-01-13T06:00:02.449Z,13.83
2023-01-13T06:01:01.521Z,13.72
2023-01-13T06:02:01.382Z,13.70
2023-01-13T06:03:01.416Z,13.70
2023-01-13T06:04:01.487Z,13.72
2023-01-13T06:05:01.364Z,13.78
2023-01-13T06:06:01.358Z,13.70
2023-01-13T06:07:01.348Z,13.68
2023-01-13T06:08:01.325Z,13.70
2023-01-13T06:09:01.328Z,13.68
2023-01-13T06:10:02.296Z,13.72
2023-01-13T06:11:01.333Z,13.70
2023-01-13T06:12:01.303Z,13.70
2023-01-13T06:13:01.279Z,13.70
2023-01-13T06:14:01.248Z,13.68
2023-01-13T06:15:01.249Z,13.59
2023-01-13T06:16:01.310Z,13.74
2023-01-13T06:17:02.241Z,13.68
2023-01-13T06:18:02.233Z,13.74
2023-01-13T06:19:01.207Z,13.79
2023-01-13T06:20:01.228Z,13.81
2023-01-13T06:21:01.183Z,13.79
2023-01-13T06:22:01.164Z,13.81
2023-01-13T06:23:01.241Z,13.85
2023-01-13T06:24:01.155Z,13.87
2023-01-13T06:25:01.153Z,13.87
2023-01-13T06:26:01.171Z,13.85
2023-01-13T06:27:01.108Z,13.70
2023-01-13T06:28:01.107Z,13.71
2023-01-13T06:29:02.104Z,13.70
2023-01-13T06:30:01.082Z,13.60
2023-01-13T06:31:01.071Z,13.47
2023-01-13T06:32:01.091Z,13.50
2023-01-13T06:33:01.043Z,13.65
2023-01-13T06:34:01.024Z,13.60
2023-01-13T06:35:03.714Z,13.60
2023-01-13T06:36:01.058Z,13.62
2023-01-13T06:37:01.026Z,13.70
2023-01-13T06:38:01.002Z,13.63
2023-01-13T06:39:00.973Z,13.65
2023-01-13T06:40:00.995Z,13.60
2023-01-13T06:41:01.986Z,13.68
2023-01-13T06:42:00.965Z,13.67
2023-01-13T06:43:00.935Z,13.53
2023-01-13T06:44:00.923Z,13.50
2023-01-13T06:45:00.920Z,13.38
2023-01-13T06:46:00.979Z,13.47
2023-01-13T06:47:00.929Z,13.49
2023-01-13T06:48:00.912Z,13.30
2023-01-13T06:49:00.901Z,13.11
2023-01-13T06:50:00.850Z,13.01
2023-01-13T06:51:00.860Z,12.82
2023-01-13T06:52:00.864Z,12.73
2023-01-13T06:53:00.838Z,12.76
2023-01-13T06:54:01.861Z,12.68
2023-01-13T06:55:00.794Z,12.58
2023-01-13T06:56:00.815Z,12.46
2023-01-13T06:57:00.798Z,12.22
2023-01-13T06:58:00.760Z,12.15
2023-01-13T06:59:00.777Z,12.20
2023-01-13T07:00:00.773Z,12.17
2023-01-13T07:01:00.836Z,12.13
2023-01-13T07:02:00.883Z,12.24
2023-01-13T07:03:00.808Z,12.06
2023-01-13T07:04:01.734Z,11.80
2023-01-13T07:05:00.711Z,11.65
2023-01-13T07:06:00.714Z,11.68
2023-01-13T07:07:00.655Z,11.52
2023-01-13T07:08:00.691Z,11.45
2023-01-13T07:09:00.654Z,11.55
2023-01-13T07:10:01.671Z,11.44
2023-01-13T07:11:00.644Z,11.30
2023-01-13T07:12:00.661Z,11.35
2023-01-13T07:13:00.603Z,11.43
2023-01-13T07:14:00.610Z,11.26
2023-01-13T07:15:01.589Z,11.35
2023-01-13T07:16:00.672Z,11.27
2023-01-13T07:17:01.631Z,11.40
2023-01-13T07:18:00.539Z,11.29
2023-01-13T07:19:00.568Z,11.27
2023-01-13T07:20:00.558Z,11.43
2023-01-13T07:21:00.549Z,11.43
2023-01-13T07:22:00.521Z,11.43
2023-01-13T07:23:00.538Z,11.36
2023-01-13T07:24:00.502Z,11.44
2023-01-13T07:25:00.557Z,11.52
2023-01-13T07:26:00.459Z,11.48
2023-01-13T07:27:01.466Z,11.55
2023-01-13T07:28:00.448Z,11.55
2023-01-13T07:29:00.423Z,11.52
2023-01-13T07:30:00.575Z,11.57
2023-01-13T07:31:00.404Z,11.50
2023-01-13T07:32:00.496Z,11.50
2023-01-13T07:33:00.379Z,11.55
2023-01-13T07:34:01.379Z,11.43
2023-01-13T07:35:00.367Z,11.45
2023-01-13T07:36:00.355Z,11.48
2023-01-13T07:37:00.325Z,11.55
2023-01-13T07:38:00.326Z,11.52
2023-01-13T07:39:00.325Z,11.59
2023-01-13T07:40:01.327Z,11.65
2023-01-13T07:41:00.299Z,11.65
2023-01-13T07:42:00.286Z,11.65
2023-01-13T07:43:00.291Z,11.69
2023-01-13T07:44:00.388Z,11.66
2023-01-13T07:45:01.234Z,11.52
2023-01-13T07:46:00.302Z,11.57
2023-01-13T07:47:01.226Z,11.54
2023-01-13T07:48:00.224Z,11.52
2023-01-13T07:49:00.245Z,11.62
2023-01-13T07:50:01.192Z,11.62
2023-01-13T07:51:00.199Z,11.57
2023-01-13T07:52:00.163Z,11.68
2023-01-13T07:53:00.149Z,11.72
2023-01-13T07:54:00.148Z,11.80
2023-01-13T07:55:01.170Z,11.80
2023-01-13T07:56:00.154Z,11.84
2023-01-13T07:57:00.127Z,11.77
2023-01-13T07:58:00.165Z,11.81
2023-01-13T07:59:01.098Z,11.60
2023-01-13T08:00:01.078Z,11.60
2023-01-13T08:01:00.229Z,11.68
2023-01-13T08:02:00.391Z,11.63
2023-01-13T08:03:00.178Z,11.51
2023-01-13T08:04:00.043Z,11.52
2023-01-13T08:05:00.042Z,11.62
2023-01-13T08:06:01.012Z,11.52
2023-01-13T08:06:59.991Z,11.55
2023-01-13T08:08:00.008Z,11.57
2023-01-13T08:09:00.003Z,11.48
2023-01-13T08:09:59.973Z,11.43
2023-01-13T08:10:59.963Z,11.51
2023-01-13T08:12:00.974Z,11.54
2023-01-13T08:12:59.967Z,11.57
2023-01-13T08:13:59.936Z,11.68
2023-01-13T08:14:59.953Z,11.73
2023-01-13T08:15:59.923Z,11.69
2023-01-13T08:16:59.916Z,11.77
2023-01-13T08:17:59.892Z,11.70
2023-01-13T08:18:59.891Z,11.78
2023-01-13T08:19:59.892Z,11.83
2023-01-13T08:20:59.862Z,11.73
2023-01-13T08:21:59.830Z,11.69
2023-01-13T08:23:00.817Z,11.72
2023-01-13T08:24:00.832Z,11.80
2023-01-13T08:24:59.827Z,11.83
2023-01-13T08:25:59.820Z,11.84
2023-01-13T08:26:59.785Z,11.87
2023-01-13T08:28:00.847Z,11.88
2023-01-13T08:28:59.771Z,11.90
2023-01-13T08:29:59.772Z,11.94
2023-01-13T08:30:59.769Z,11.99
2023-01-13T08:31:59.733Z,11.88
2023-01-13T08:32:59.709Z,11.95
2023-01-13T08:33:59.712Z,11.86
2023-01-13T08:35:00.697Z,11.95
2023-01-13T08:35:59.719Z,11.86
2023-01-13T08:36:59.680Z,11.83
2023-01-13T08:37:59.671Z,11.84
2023-01-13T08:38:59.643Z,11.86
2023-01-13T08:39:59.643Z,11.86
2023-01-13T08:40:59.651Z,11.80
2023-01-13T08:41:59.649Z,11.81
2023-01-13T08:42:59.625Z,11.80
2023-01-13T08:43:59.605Z,11.80
2023-01-13T08:44:59.621Z,11.66
2023-01-13T08:45:59.647Z,11.77
2023-01-13T08:46:59.565Z,11.83
2023-01-13T08:47:59.595Z,11.73
2023-01-13T08:49:00.529Z,11.78
2023-01-13T08:49:59.563Z,11.77
2023-01-13T08:50:59.521Z,11.73
2023-01-13T08:51:59.507Z,11.54
2023-01-13T08:52:59.485Z,11.48
2023-01-13T08:53:59.503Z,11.45
2023-01-13T08:54:59.491Z,11.40
2023-01-13T08:55:59.487Z,11.41
2023-01-13T08:56:59.521Z,11.41
2023-01-13T08:58:14.153Z,11.23
2023-01-13T08:59:00.430Z,11.30
2023-01-13T09:00:00.444Z,11.44
2023-01-13T09:00:59.539Z,11.47
2023-01-13T09:01:59.606Z,11.62
2023-01-13T09:02:59.388Z,11.59
2023-01-13T09:03:59.444Z,11.55
2023-01-13T09:04:59.423Z,11.51
2023-01-13T09:05:59.370Z,11.48
2023-01-13T09:06:59.367Z,11.55
2023-01-13T09:07:59.328Z,11.63
2023-01-13T09:08:59.327Z,11.69
2023-01-13T09:09:59.328Z,11.66
2023-01-13T09:10:59.297Z,11.80
2023-01-13T09:11:59.290Z,11.78
2023-01-13T09:12:59.305Z,11.78
2023-01-13T09:13:59.273Z,11.78
2023-01-13T09:14:59.317Z,11.84
2023-01-13T09:15:59.337Z,11.77
2023-01-13T09:16:59.240Z,11.69
2023-01-13T09:18:00.223Z,11.65
2023-01-13T09:18:59.216Z,11.65
2023-01-13T09:19:59.196Z,11.54
2023-01-13T09:20:59.207Z,11.62
2023-01-13T09:21:59.177Z,11.52
2023-01-13T09:22:59.192Z,11.50
2023-01-13T09:23:59.677Z,11.68
2023-01-13T09:24:59.145Z,11.59
2023-01-13T09:25:59.132Z,11.65
2023-01-13T09:26:59.116Z,11.83
2023-01-13T09:27:59.110Z,11.80
2023-01-13T09:28:59.110Z,11.88
2023-01-13T09:29:59.106Z,11.83
2023-01-13T09:30:59.096Z,11.77
2023-01-13T09:31:59.105Z,11.80
2023-01-13T09:32:59.074Z,11.68
2023-01-13T09:33:59.047Z,11.77
2023-01-13T09:34:59.026Z,11.66
2023-01-13T09:35:59.061Z,11.63
2023-01-13T09:36:59.021Z,11.63
2023-01-13T09:37:59.056Z,11.60
2023-01-13T09:38:59.027Z,11.66
2023-01-13T09:39:58.978Z,11.63
2023-01-13T09:40:58.989Z,11.68
2023-01-13T09:41:58.946Z,11.68
2023-01-13T09:42:58.941Z,11.80
2023-01-13T09:43:58.983Z,11.87
2023-01-13T09:44:58.936Z,11.91
2023-01-13T09:45:58.969Z,11.88
2023-01-13T09:46:59.888Z,11.94
2023-01-13T09:47:58.910Z,11.88
2023-01-13T09:48:58.878Z,12.00
2023-01-13T09:49:59.870Z,11.99
2023-01-13T09:50:58.928Z,12.03
2023-01-13T09:51:58.856Z,11.95
2023-01-13T09:52:59.825Z,11.94
2023-01-13T09:53:59.810Z,11.95
2023-01-13T09:54:58.838Z,11.97
2023-01-13T09:55:58.823Z,12.02
2023-01-13T09:56:58.779Z,12.07
2023-01-13T09:57:58.776Z,12.00
2023-01-13T09:58:58.789Z,12.06
2023-01-13T09:59:58.757Z,12.06
2023-01-13T10:00:59.790Z,12.02
2023-01-13T10:01:59.737Z,11.95
2023-01-13T10:02:59.732Z,11.99
2023-01-13T10:03:58.740Z,11.99
2023-01-13T10:04:58.816Z,12.02
2023-01-13T10:05:59.693Z,12.00
2023-01-13T10:06:58.739Z,12.10
2023-01-13T10:07:58.680Z,11.99
2023-01-13T10:08:58.678Z,12.07
2023-01-13T10:09:58.650Z,12.12
2023-01-13T10:10:58.657Z,12.12
2023-01-13T10:11:58.616Z,12.18
2023-01-13T10:12:59.640Z,12.20
2023-01-13T10:13:58.622Z,12.35
2023-01-13T10:14:58.602Z,12.31
2023-01-13T10:16:02.749Z,12.32
2023-01-13T10:16:58.562Z,12.22
2023-01-13T10:17:58.551Z,12.22
2023-01-13T10:18:59.588Z,12.25
2023-01-13T10:19:58.648Z,12.37
2023-01-13T10:20:58.522Z,12.31
2023-01-13T10:21:58.533Z,12.22
2023-01-13T10:22:59.494Z,12.24
2023-01-13T10:23:59.507Z,12.35
2023-01-13T10:24:59.522Z,12.35
2023-01-13T10:25:59.528Z,12.45
2023-01-13T10:26:59.541Z,12.49
2023-01-13T10:27:58.469Z,12.47
2023-01-13T10:28:58.447Z,12.46
2023-01-13T10:29:58.437Z,12.37
2023-01-13T10:30:58.485Z,12.32
2023-01-13T10:31:58.410Z,12.43
2023-01-13T10:32:58.412Z,12.45
2023-01-13T10:33:58.406Z,12.53
2023-01-13T10:34:59.373Z,12.40
2023-01-13T10:35:58.401Z,12.35
2023-01-13T10:36:58.364Z,12.46
2023-01-13T10:37:58.336Z,12.55
2023-01-13T10:38:58.333Z,12.54
2023-01-13T10:39:58.347Z,12.43
2023-01-13T10:40:58.355Z,12.47
2023-01-13T10:41:58.310Z,12.46
2023-01-13T10:42:59.287Z,12.39
2023-01-13T10:43:58.286Z,12.49
2023-01-13T10:44:58.278Z,12.43
2023-01-13T10:45:58.272Z,12.42
2023-01-13T10:46:58.247Z,12.29
2023-01-13T10:47:58.232Z,12.39
2023-01-13T10:48:58.220Z,12.42
2023-01-13T10:49:58.223Z,12.36
2023-01-13T10:50:58.230Z,12.31
2023-01-13T10:51:58.281Z,12.21
2023-01-13T10:52:58.191Z,12.31
2023-01-13T10:53:59.191Z,12.31
2023-01-13T10:54:58.159Z,12.25
2023-01-13T10:55:58.148Z,12.21
2023-01-13T10:56:58.157Z,12.18
2023-01-13T10:57:58.146Z,12.24
2023-01-13T10:58:58.133Z,12.27
2023-01-13T10:59:58.107Z,12.25
2023-01-13T11:00:58.115Z,12.20
2023-01-13T11:01:58.118Z,12.18
2023-01-13T11:02:58.053Z,12.24
2023-01-13T11:03:58.064Z,12.31
2023-01-13T11:04:58.230Z,12.42
2023-01-13T11:05:58.033Z,12.39
2023-01-13T11:06:58.026Z,12.53
2023-01-13T11:07:58.055Z,12.36
2023-01-13T11:08:58.070Z,12.36
2023-01-13T11:09:57.998Z,12.32
2023-01-13T11:10:58.001Z,12.46
2023-01-13T11:11:57.992Z,12.49
2023-01-13T11:12:58.997Z,12.49
2023-01-13T11:13:57.952Z,12.49
2023-01-13T11:14:58.934Z,12.47
2023-01-13T11:15:57.988Z,12.49
2023-01-13T11:16:57.906Z,12.46
2023-01-13T11:17:57.924Z,12.28
2023-01-13T11:18:57.881Z,12.36
2023-01-13T11:19:57.906Z,12.40
2023-01-13T11:20:57.890Z,12.54
2023-01-13T11:21:57.863Z,12.55
2023-01-13T11:22:57.844Z,12.46
2023-01-13T11:23:57.852Z,12.32
2023-01-13T11:24:57.829Z,12.28
2023-01-13T11:25:57.821Z,12.32
2023-01-13T11:26:57.804Z,12.39
2023-01-13T11:27:57.772Z,12.49
2023-01-13T11:28:57.784Z,12.43
2023-01-13T11:29:57.780Z,12.31
2023-01-13T11:30:58.929Z,12.36
2023-01-13T11:31:57.738Z,12.32
2023-01-13T11:32:57.722Z,12.36
2023-01-13T11:33:57.721Z,12.54
2023-01-13T11:34:57.735Z,12.46
2023-01-13T11:35:57.700Z,12.53
2023-01-13T11:36:57.726Z,12.45
2023-01-13T11:37:58.673Z,12.53
2023-01-13T11:38:58.668Z,12.42
2023-01-13T11:39:57.714Z,12.64
2023-01-13T11:40:57.628Z,12.64
2023-01-13T11:41:57.637Z,12.61
2023-01-13T11:42:57.641Z,12.76
2023-01-13T11:43:57.635Z,12.72
2023-01-13T11:44:57.597Z,12.76
2023-01-13T11:45:57.602Z,12.82
2023-01-13T11:46:57.638Z,12.79
2023-01-13T11:47:58.580Z,12.54
2023-01-13T11:48:57.564Z,12.61
2023-01-13T11:49:57.538Z,12.62
2023-01-13T11:50:57.538Z,12.73
2023-01-13T11:51:58.510Z,12.78
2023-01-13T11:52:57.523Z,12.75
2023-01-13T11:53:57.510Z,12.90
2023-01-13T11:54:57.488Z,12.86
2023-01-13T11:55:57.477Z,12.82
2023-01-13T11:56:57.453Z,12.82
2023-01-13T11:57:57.467Z,12.86
2023-01-13T11:58:57.427Z,12.93
2023-01-13T11:59:58.416Z,12.94
2023-01-13T12:00:57.485Z,13.03
2023-01-13T12:01:57.442Z,13.09
2023-01-13T12:02:57.458Z,13.08
2023-01-13T12:03:58.428Z,12.93
2023-01-13T12:04:57.374Z,12.91
2023-01-13T12:05:57.363Z,13.01
2023-01-13T12:06:57.353Z,12.97
2023-01-13T12:07:58.364Z,13.08
2023-01-13T12:08:58.341Z,13.09
2023-01-13T12:09:58.323Z,13.09
2023-01-13T12:10:57.306Z,13.13
2023-01-13T12:11:57.334Z,13.18
2023-01-13T12:12:59.481Z,13.08
2023-01-13T12:13:58.280Z,12.97
2023-01-13T12:14:57.273Z,12.95
2023-01-13T12:15:57.277Z,12.97
2023-01-13T12:16:57.249Z,13.03
2023-01-13T12:17:58.221Z,12.98
2023-01-13T12:18:57.208Z,12.94
2023-01-13T12:19:57.210Z,13.01
2023-01-13T12:20:57.203Z,13.09
2023-01-13T12:21:57.183Z,13.01
2023-01-13T12:22:58.160Z,13.12
2023-01-13T12:23:57.146Z,13.20
2023-01-13T12:24:57.203Z,13.08
2023-01-13T12:25:57.141Z,13.09
2023-01-13T12:26:57.168Z,13.05
2023-01-13T12:27:57.135Z,12.90
2023-01-13T12:28:57.160Z,12.90
2023-01-13T12:29:58.195Z,12.85
2023-01-13T12:30:57.092Z,12.91
2023-01-13T12:31:57.139Z,12.86
2023-01-13T12:32:57.046Z,13.01
2023-01-13T12:33:57.064Z,12.90
2023-01-13T12:34:57.061Z,12.85
2023-01-13T12:35:57.059Z,12.70
2023-01-13T12:36:57.011Z,12.83
2023-01-13T12:37:57.007Z,12.90
2023-01-13T12:38:56.983Z,12.90
2023-01-13T12:39:56.988Z,12.94
2023-01-13T12:40:56.978Z,12.87
2023-01-13T12:41:56.960Z,12.87
2023-01-13T12:42:56.947Z,12.87
2023-01-13T12:43:56.959Z,13.01
2023-01-13T12:44:56.955Z,13.05
2023-01-13T12:45:57.937Z,13.11
2023-01-13T12:46:57.923Z,12.94
2023-01-13T12:47:56.885Z,12.86
2023-01-13T12:48:56.868Z,12.87
2023-01-13T12:49:56.881Z,12.87
2023-01-13T12:50:57.890Z,12.97
2023-01-13T12:51:56.856Z,12.87